sensor_id;sensor_type;location;lat;lon;timestamp;pressure;altitude;pressure_sealevel;temperature;humidity
69306;BME280;56427;51.580;4.656;2022-07-30T00:01:04;101885.94;;;16.23;100.00
69306;BME280;56427;51.580;4.656;2022-07-30T00:03:32;101879.34;;;16.19;100.00
69306;BME280;56427;51.580;4.656;2022-07-30T00:05:57;101873.84;;;16.12;100.00
69306;BME280;56427;51.580;4.656;2022-07-30T00:08:22;101874.78;;;16.11;100.00
69306;BME280;56427;51.580;4.656;2022-07-30T00:10:49;101878.81;;;16.15;100.00
69306;BME280;56427;51.580;4.656;2022-07-30T00:13:14;101871.75;;;16.06;100.00
69306;BME280;56427;51.580;4.656;2022-07-30T00:15:40;101867.66;;;16.04;100.00
69306;BME280;56427;51.580;4.656;2022-07-30T00:18:05;101863.22;;;16.04;100.00
69306;BME280;56427;51.580;4.656;2022-07-30T00:20:30;101858.53;;;15.98;100.00
69306;BME280;56427;51.580;4.656;2022-07-30T00:22:56;101856.88;;;15.97;100.00
69306;BME280;56427;51.580;4.656;2022-07-30T00:25:21;101851.94;;;15.94;100.00
69306;BME280;56427;51.580;4.656;2022-07-30T00:27:47;101849.59;;;16.00;100.00
69306;BME280;56427;51.580;4.656;2022-07-30T00:30:12;101853.84;;;15.82;100.00
69306;BME280;56427;51.580;4.656;2022-07-30T00:32:38;101854.50;;;15.74;100.00
69306;BME280;56427;51.580;4.656;2022-07-30T00:35:04;101848.72;;;15.71;100.00
69306;BME280;56427;51.580;4.656;2022-07-30T00:37:29;101843.47;;;15.61;100.00
69306;BME280;56427;51.580;4.656;2022-07-30T00:39:55;101841.94;;;15.58;100.00
69306;BME280;56427;51.580;4.656;2022-07-30T00:42:20;101841.41;;;15.55;100.00
69306;BME280;56427;51.580;4.656;2022-07-30T00:44:53;101837.66;;;15.38;100.00
69306;BME280;56427;51.580;4.656;2022-07-30T00:47:19;101835.88;;;15.48;100.00
69306;BME280;56427;51.580;4.656;2022-07-30T00:49:45;101835.19;;;15.65;100.00
69306;BME280;56427;51.580;4.656;2022-07-30T00:52:11;101843.03;;;15.36;100.00
69306;BME280;56427;51.580;4.656;2022-07-30T00:54:37;101846.72;;;15.34;100.00
69306;BME280;56427;51.580;4.656;2022-07-30T00:57:02;101845.19;;;15.31;100.00
69306;BME280;56427;51.580;4.656;2022-07-30T00:59:27;101848.63;;;15.22;100.00
69306;BME280;56427;51.580;4.656;2022-07-30T01:01:53;101843.97;;;15.25;100.00
69306;BME280;56427;51.580;4.656;2022-07-30T01:04:19;101851.13;;;15.33;100.00
69306;BME280;56427;51.580;4.656;2022-07-30T01:06:44;101852.78;;;15.34;100.00
69306;BME280;56427;51.580;4.656;2022-07-30T01:09:10;101856.25;;;15.44;100.00
69306;BME280;56427;51.580;4.656;2022-07-30T01:11:39;101846.59;;;15.35;100.00
69306;BME280;56427;51.580;4.656;2022-07-30T01:14:06;101845.91;;;15.33;100.00
69306;BME280;56427;51.580;4.656;2022-07-30T01:16:33;101842.03;;;15.27;100.00
69306;BME280;56427;51.580;4.656;2022-07-30T01:18:59;101852.47;;;15.18;100.00
69306;BME280;56427;51.580;4.656;2022-07-30T01:21:48;101849.41;;;15.13;100.00
69306;BME280;56427;51.580;4.656;2022-07-30T01:24:31;101849.88;;;15.27;100.00
69306;BME280;56427;51.580;4.656;2022-07-30T01:26:58;101854.25;;;15.17;100.00
69306;BME280;56427;51.580;4.656;2022-07-30T01:29:26;101849.72;;;15.19;100.00
69306;BME280;56427;51.580;4.656;2022-07-30T01:31:54;101846.28;;;15.19;100.00
69306;BME280;56427;51.580;4.656;2022-07-30T01:34:27;101844.53;;;14.88;100.00
69306;BME280;56427;51.580;4.656;2022-07-30T01:36:55;101839.19;;;15.00;100.00
69306;BME280;56427;51.580;4.656;2022-07-30T01:39:24;101838.38;;;14.99;100.00
69306;BME280;56427;51.580;4.656;2022-07-30T01:41:51;101835.09;;;15.07;100.00
69306;BME280;56427;51.580;4.656;2022-07-30T01:44:18;101835.09;;;15.07;100.00
69306;BME280;56427;51.580;4.656;2022-07-30T01:46:46;101833.16;;;15.09;100.00
69306;BME280;56427;51.580;4.656;2022-07-30T01:49:12;101835.41;;;15.14;100.00
69306;BME280;56427;51.580;4.656;2022-07-30T01:51:38;101835.38;;;15.04;100.00
69306;BME280;56427;51.580;4.656;2022-07-30T01:54:07;101833.28;;;14.98;100.00
69306;BME280;56427;51.580;4.656;2022-07-30T01:56:34;101848.03;;;14.78;100.00
69306;BME280;56427;51.580;4.656;2022-07-30T01:59:02;101847.41;;;14.85;100.00
69306;BME280;56427;51.580;4.656;2022-07-30T02:01:29;101843.13;;;14.84;100.00
69306;BME280;56427;51.580;4.656;2022-07-30T02:03:54;101846.00;;;14.81;100.00
69306;BME280;56427;51.580;4.656;2022-07-30T02:06:22;101844.44;;;14.69;100.00
69306;BME280;56427;51.580;4.656;2022-07-30T02:08:54;101844.81;;;14.64;100.00
69306;BME280;56427;51.580;4.656;2022-07-30T02:11:20;101847.06;;;14.69;100.00
69306;BME280;56427;51.580;4.656;2022-07-30T02:14:08;101851.56;;;14.67;100.00
69306;BME280;56427;51.580;4.656;2022-07-30T02:16:37;101856.34;;;14.62;100.00
69306;BME280;56427;51.580;4.656;2022-07-30T02:19:09;101856.97;;;14.75;100.00
69306;BME280;56427;51.580;4.656;2022-07-30T02:21:37;101856.44;;;14.81;100.00
69306;BME280;56427;51.580;4.656;2022-07-30T02:24:06;101852.84;;;14.72;100.00
69306;BME280;56427;51.580;4.656;2022-07-30T02:26:34;101859.72;;;14.52;100.00
69306;BME280;56427;51.580;4.656;2022-07-30T02:29:02;101857.41;;;14.38;100.00
69306;BME280;56427;51.580;4.656;2022-07-30T02:31:30;101858.56;;;14.45;100.00
69306;BME280;56427;51.580;4.656;2022-07-30T02:33:58;101849.91;;;14.45;100.00
69306;BME280;56427;51.580;4.656;2022-07-30T02:36:26;101863.66;;;14.47;100.00
69306;BME280;56427;51.580;4.656;2022-07-30T02:38:53;101862.00;;;14.46;100.00
69306;BME280;56427;51.580;4.656;2022-07-30T02:41:22;101858.00;;;14.42;100.00
69306;BME280;56427;51.580;4.656;2022-07-30T02:43:50;101857.78;;;14.33;100.00
69306;BME280;56427;51.580;4.656;2022-07-30T02:46:17;101860.78;;;14.29;100.00
69306;BME280;56427;51.580;4.656;2022-07-30T02:48:43;101858.91;;;14.31;100.00
69306;BME280;56427;51.580;4.656;2022-07-30T02:51:10;101862.06;;;14.34;100.00
69306;BME280;56427;51.580;4.656;2022-07-30T02:53:42;101862.44;;;14.30;100.00
69306;BME280;56427;51.580;4.656;2022-07-30T02:56:09;101864.13;;;14.31;100.00
69306;BME280;56427;51.580;4.656;2022-07-30T02:58:35;101861.69;;;14.39;100.00
69306;BME280;56427;51.580;4.656;2022-07-30T03:01:03;101864.75;;;14.44;100.00
69306;BME280;56427;51.580;4.656;2022-07-30T03:03:30;101858.13;;;14.40;100.00
69306;BME280;56427;51.580;4.656;2022-07-30T03:05:56;101860.97;;;14.37;100.00
69306;BME280;56427;51.580;4.656;2022-07-30T03:08:24;101863.97;;;14.32;100.00
69306;BME280;56427;51.580;4.656;2022-07-30T03:10:52;101854.25;;;14.34;100.00
69306;BME280;56427;51.580;4.656;2022-07-30T03:13:19;101860.28;;;14.35;100.00
69306;BME280;56427;51.580;4.656;2022-07-30T03:15:46;101857.66;;;14.35;100.00
69306;BME280;56427;51.580;4.656;2022-07-30T03:18:15;101864.69;;;14.34;100.00
69306;BME280;56427;51.580;4.656;2022-07-30T03:20:43;101861.09;;;14.35;100.00
69306;BME280;56427;51.580;4.656;2022-07-30T03:23:10;101857.28;;;14.40;100.00
69306;BME280;56427;51.580;4.656;2022-07-30T03:25:38;101856.00;;;14.34;100.00
69306;BME280;56427;51.580;4.656;2022-07-30T03:28:04;101869.53;;;14.39;100.00
69306;BME280;56427;51.580;4.656;2022-07-30T03:30:32;101862.94;;;14.24;100.00
69306;BME280;56427;51.580;4.656;2022-07-30T03:32:58;101858.81;;;14.21;100.00
69306;BME280;56427;51.580;4.656;2022-07-30T03:35:24;101860.22;;;14.25;100.00
69306;BME280;56427;51.580;4.656;2022-07-30T03:37:50;101855.81;;;14.26;100.00
69306;BME280;56427;51.580;4.656;2022-07-30T03:40:17;101858.91;;;14.31;100.00
69306;BME280;56427;51.580;4.656;2022-07-30T03:42:44;101855.88;;;14.35;100.00
69306;BME280;56427;51.580;4.656;2022-07-30T03:45:10;101851.06;;;14.31;100.00
69306;BME280;56427;51.580;4.656;2022-07-30T03:47:40;101854.78;;;14.17;100.00
69306;BME280;56427;51.580;4.656;2022-07-30T03:50:08;101858.22;;;14.17;100.00
69306;BME280;56427;51.580;4.656;2022-07-30T03:52:36;101862.94;;;14.24;100.00
69306;BME280;56427;51.580;4.656;2022-07-30T03:55:03;101865.69;;;14.22;100.00
69306;BME280;56427;51.580;4.656;2022-07-30T03:57:29;101875.19;;;14.23;100.00
69306;BME280;56427;51.580;4.656;2022-07-30T03:59:54;101871.16;;;14.19;100.00
69306;BME280;56427;51.580;4.656;2022-07-30T04:02:19;101869.72;;;14.26;100.00
69306;BME280;56427;51.580;4.656;2022-07-30T04:04:45;101876.50;;;14.17;100.00
69306;BME280;56427;51.580;4.656;2022-07-30T04:07:10;101878.09;;;14.09;100.00
69306;BME280;56427;51.580;4.656;2022-07-30T04:09:36;101870.22;;;14.20;100.00
69306;BME280;56427;51.580;4.656;2022-07-30T04:12:01;101874.09;;;14.26;100.00
69306;BME280;56427;51.580;4.656;2022-07-30T04:14:38;101880.53;;;14.22;100.00
69306;BME280;56427;51.580;4.656;2022-07-30T04:17:08;101885.94;;;14.30;100.00
69306;BME280;56427;51.580;4.656;2022-07-30T04:19:43;101885.38;;;14.26;100.00
69306;BME280;56427;51.580;4.656;2022-07-30T04:22:12;101882.03;;;14.24;100.00
69306;BME280;56427;51.580;4.656;2022-07-30T04:24:41;101881.34;;;14.22;100.00
69306;BME280;56427;51.580;4.656;2022-07-30T04:27:07;101883.97;;;14.22;100.00
69306;BME280;56427;51.580;4.656;2022-07-30T04:29:33;101888.25;;;14.44;100.00
69306;BME280;56427;51.580;4.656;2022-07-30T04:31:59;101900.53;;;14.96;100.00
69306;BME280;56427;51.580;4.656;2022-07-30T04:34:24;101891.50;;;15.09;100.00
69306;BME280;56427;51.580;4.656;2022-07-30T04:36:50;101888.25;;;15.17;100.00
69306;BME280;56427;51.580;4.656;2022-07-30T04:39:15;101894.59;;;15.24;100.00
69306;BME280;56427;51.580;4.656;2022-07-30T04:41:40;101892.13;;;15.33;100.00
69306;BME280;56427;51.580;4.656;2022-07-30T04:44:06;101903.59;;;15.92;100.00
69306;BME280;56427;51.580;4.656;2022-07-30T04:46:31;101900.53;;;16.45;100.00
69306;BME280;56427;51.580;4.656;2022-07-30T04:48:57;101898.44;;;16.68;100.00
69306;BME280;56427;51.580;4.656;2022-07-30T04:51:29;101897.38;;;16.51;100.00
69306;BME280;56427;51.580;4.656;2022-07-30T04:53:56;101889.19;;;16.64;100.00
69306;BME280;56427;51.580;4.656;2022-07-30T04:56:24;101894.03;;;16.49;100.00
69306;BME280;56427;51.580;4.656;2022-07-30T04:58:51;101902.91;;;15.99;100.00
69306;BME280;56427;51.580;4.656;2022-07-30T05:01:23;101907.88;;;16.42;100.00
69306;BME280;56427;51.580;4.656;2022-07-30T05:03:51;101908.41;;;16.55;100.00
69306;BME280;56427;51.580;4.656;2022-07-30T05:06:18;101910.00;;;16.75;100.00
69306;BME280;56427;51.580;4.656;2022-07-30T05:08:43;101917.34;;;17.19;100.00
69306;BME280;56427;51.580;4.656;2022-07-30T05:11:13;101916.91;;;17.52;100.00
69306;BME280;56427;51.580;4.656;2022-07-30T05:13:42;101916.03;;;18.77;97.84
69306;BME280;56427;51.580;4.656;2022-07-30T05:16:09;101914.94;;;18.62;94.87
69306;BME280;56427;51.580;4.656;2022-07-30T05:18:34;101917.34;;;19.42;89.88
69306;BME280;56427;51.580;4.656;2022-07-30T05:20:59;101913.53;;;20.36;80.82
69306;BME280;56427;51.580;4.656;2022-07-30T05:23:25;101915.31;;;19.78;82.19
69306;BME280;56427;51.580;4.656;2022-07-30T05:25:50;101909.47;;;19.50;84.74
69306;BME280;56427;51.580;4.656;2022-07-30T05:28:15;101911.34;;;19.23;85.45
69306;BME280;56427;51.580;4.656;2022-07-30T05:30:41;101911.22;;;19.84;83.97
69306;BME280;56427;51.580;4.656;2022-07-30T05:33:06;101917.63;;;20.55;81.71
69306;BME280;56427;51.580;4.656;2022-07-30T05:35:31;101919.69;;;21.72;77.36
69306;BME280;56427;51.580;4.656;2022-07-30T05:37:58;101922.75;;;21.21;78.31
69306;BME280;56427;51.580;4.656;2022-07-30T05:40:24;101928.41;;;21.02;81.03
69306;BME280;56427;51.580;4.656;2022-07-30T05:42:49;101931.28;;;19.85;84.79
69306;BME280;56427;51.580;4.656;2022-07-30T05:45:15;101932.91;;;20.93;82.72
69306;BME280;56427;51.580;4.656;2022-07-30T05:47:40;101933.06;;;21.47;79.88
69306;BME280;56427;51.580;4.656;2022-07-30T05:50:06;101935.88;;;20.90;80.20
69306;BME280;56427;51.580;4.656;2022-07-30T05:52:31;101934.47;;;20.05;84.20
69306;BME280;56427;51.580;4.656;2022-07-30T05:54:57;101933.44;;;20.55;82.70
69306;BME280;56427;51.580;4.656;2022-07-30T05:57:22;101930.50;;;20.67;83.13
69306;BME280;56427;51.580;4.656;2022-07-30T05:59:47;101933.38;;;21.05;81.42
69306;BME280;56427;51.580;4.656;2022-07-30T06:02:14;101929.00;;;21.28;79.90
69306;BME280;56427;51.580;4.656;2022-07-30T06:04:40;101932.13;;;20.59;80.87
69306;BME280;56427;51.580;4.656;2022-07-30T06:07:05;101933.09;;;20.91;82.32
69306;BME280;56427;51.580;4.656;2022-07-30T06:09:30;101941.63;;;21.02;80.92
69306;BME280;56427;51.580;4.656;2022-07-30T06:11:56;101945.59;;;20.98;80.58
69306;BME280;56427;51.580;4.656;2022-07-30T06:14:21;101937.59;;;20.41;81.71
69306;BME280;56427;51.580;4.656;2022-07-30T06:16:46;101944.31;;;20.77;82.18
69306;BME280;56427;51.580;4.656;2022-07-30T06:19:11;101937.06;;;20.87;80.48
69306;BME280;56427;51.580;4.656;2022-07-30T06:21:37;101948.50;;;21.59;78.07
69306;BME280;56427;51.580;4.656;2022-07-30T06:24:02;101941.91;;;22.09;75.73
69306;BME280;56427;51.580;4.656;2022-07-30T06:26:28;101938.59;;;21.84;75.42
69306;BME280;56427;51.580;4.656;2022-07-30T06:28:53;101936.94;;;21.91;75.95
69306;BME280;56427;51.580;4.656;2022-07-30T06:31:18;101942.84;;;21.93;74.36
69306;BME280;56427;51.580;4.656;2022-07-30T06:33:43;101948.09;;;22.92;70.40
69306;BME280;56427;51.580;4.656;2022-07-30T06:36:09;101940.94;;;22.48;71.14
69306;BME280;56427;51.580;4.656;2022-07-30T06:38:34;101940.09;;;22.33;72.80
69306;BME280;56427;51.580;4.656;2022-07-30T06:40:59;101943.56;;;23.16;69.91
69306;BME280;56427;51.580;4.656;2022-07-30T06:43:25;101940.72;;;22.35;72.18
69306;BME280;56427;51.580;4.656;2022-07-30T06:45:50;101944.13;;;23.48;68.56
69306;BME280;56427;51.580;4.656;2022-07-30T06:48:15;101943.50;;;24.25;65.10
69306;BME280;56427;51.580;4.656;2022-07-30T06:50:41;101942.59;;;24.68;61.97
69306;BME280;56427;51.580;4.656;2022-07-30T06:53:06;101947.81;;;23.32;67.88
69306;BME280;56427;51.580;4.656;2022-07-30T06:55:32;101948.06;;;23.52;66.21
69306;BME280;56427;51.580;4.656;2022-07-30T06:57:57;101950.34;;;23.92;66.25
69306;BME280;56427;51.580;4.656;2022-07-30T07:00:23;101950.63;;;24.53;62.37
69306;BME280;56427;51.580;4.656;2022-07-30T07:02:48;101957.53;;;24.69;61.59
69306;BME280;56427;51.580;4.656;2022-07-30T07:05:13;101946.31;;;24.74;62.51
69306;BME280;56427;51.580;4.656;2022-07-30T07:07:40;101948.47;;;24.35;60.96
69306;BME280;56427;51.580;4.656;2022-07-30T07:10:06;101946.81;;;22.58;68.64
69306;BME280;56427;51.580;4.656;2022-07-30T07:12:32;101949.91;;;22.62;70.29
69306;BME280;56427;51.580;4.656;2022-07-30T07:14:57;101953.94;;;23.47;65.54
69306;BME280;56427;51.580;4.656;2022-07-30T07:17:23;101951.94;;;23.05;66.46
69306;BME280;56427;51.580;4.656;2022-07-30T07:19:48;101954.75;;;24.06;63.45
69306;BME280;56427;51.580;4.656;2022-07-30T07:22:13;101958.88;;;23.72;65.59
69306;BME280;56427;51.580;4.656;2022-07-30T07:24:39;101959.94;;;23.56;66.99
69306;BME280;56427;51.580;4.656;2022-07-30T07:27:06;101951.09;;;24.57;60.35
69306;BME280;56427;51.580;4.656;2022-07-30T07:29:31;101959.47;;;24.11;60.47
69306;BME280;56427;51.580;4.656;2022-07-30T07:31:56;101967.81;;;23.34;63.12
69306;BME280;56427;51.580;4.656;2022-07-30T07:34:22;101966.34;;;25.18;55.93
69306;BME280;56427;51.580;4.656;2022-07-30T07:36:47;101973.22;;;23.26;61.46
69306;BME280;56427;51.580;4.656;2022-07-30T07:39:12;101969.88;;;23.18;62.02
69306;BME280;56427;51.580;4.656;2022-07-30T07:41:38;101971.94;;;23.22;60.51
69306;BME280;56427;51.580;4.656;2022-07-30T07:44:04;101974.47;;;24.47;56.39
69306;BME280;56427;51.580;4.656;2022-07-30T07:46:30;101971.56;;;24.13;56.45
69306;BME280;56427;51.580;4.656;2022-07-30T07:48:56;101977.91;;;23.61;57.95
69306;BME280;56427;51.580;4.656;2022-07-30T07:51:21;101976.69;;;24.65;55.09
69306;BME280;56427;51.580;4.656;2022-07-30T07:53:47;101965.34;;;24.06;56.12
69306;BME280;56427;51.580;4.656;2022-07-30T07:56:12;101969.66;;;24.07;56.72
69306;BME280;56427;51.580;4.656;2022-07-30T07:58:38;101958.41;;;24.55;56.33
69306;BME280;56427;51.580;4.656;2022-07-30T08:01:03;101967.03;;;23.70;54.62
69306;BME280;56427;51.580;4.656;2022-07-30T08:03:29;101959.44;;;23.82;54.82
69306;BME280;56427;51.580;4.656;2022-07-30T08:05:54;101951.53;;;24.89;53.01
69306;BME280;56427;51.580;4.656;2022-07-30T08:08:20;101948.72;;;25.45;52.91
69306;BME280;56427;51.580;4.656;2022-07-30T08:10:45;101951.44;;;25.17;51.99
69306;BME280;56427;51.580;4.656;2022-07-30T08:13:10;101951.59;;;24.67;53.71
69306;BME280;56427;51.580;4.656;2022-07-30T08:15:36;101947.31;;;25.49;50.66
69306;BME280;56427;51.580;4.656;2022-07-30T08:18:01;101944.44;;;25.09;52.76
69306;BME280;56427;51.580;4.656;2022-07-30T08:20:27;101957.97;;;23.65;55.91
69306;BME280;56427;51.580;4.656;2022-07-30T08:22:52;101948.44;;;25.27;52.47
69306;BME280;56427;51.580;4.656;2022-07-30T08:25:17;101944.31;;;26.66;48.89
69306;BME280;56427;51.580;4.656;2022-07-30T08:27:44;101951.34;;;24.97;51.34
69306;BME280;56427;51.580;4.656;2022-07-30T08:30:10;101933.44;;;24.21;52.73
69306;BME280;56427;51.580;4.656;2022-07-30T08:32:36;101939.31;;;25.01;51.59
69306;BME280;56427;51.580;4.656;2022-07-30T08:35:03;101944.97;;;24.56;51.06
69306;BME280;56427;51.580;4.656;2022-07-30T08:37:28;101937.34;;;25.16;49.59
69306;BME280;56427;51.580;4.656;2022-07-30T08:39:54;101922.63;;;24.72;48.73
69306;BME280;56427;51.580;4.656;2022-07-30T08:42:21;101934.28;;;24.50;48.69
69306;BME280;56427;51.580;4.656;2022-07-30T08:44:46;101942.75;;;25.30;47.57
69306;BME280;56427;51.580;4.656;2022-07-30T08:47:16;101944.75;;;25.96;46.06
69306;BME280;56427;51.580;4.656;2022-07-30T08:49:43;101943.47;;;25.92;45.51
69306;BME280;56427;51.580;4.656;2022-07-30T08:52:10;101947.06;;;25.44;47.49
69306;BME280;56427;51.580;4.656;2022-07-30T08:54:36;101955.38;;;26.36;43.83
69306;BME280;56427;51.580;4.656;2022-07-30T08:57:03;101950.25;;;26.41;42.50
69306;BME280;56427;51.580;4.656;2022-07-30T08:59:29;101959.69;;;26.31;43.26
69306;BME280;56427;51.580;4.656;2022-07-30T09:01:56;101957.22;;;26.56;42.92
69306;BME280;56427;51.580;4.656;2022-07-30T09:04:22;101957.84;;;25.98;44.20
69306;BME280;56427;51.580;4.656;2022-07-30T09:06:47;101958.28;;;27.20;43.22
69306;BME280;56427;51.580;4.656;2022-07-30T09:09:14;101957.66;;;26.06;41.81
69306;BME280;56427;51.580;4.656;2022-07-30T09:11:39;101956.28;;;25.00;43.91
69306;BME280;56427;51.580;4.656;2022-07-30T09:14:09;101962.38;;;26.11;44.13
69306;BME280;56427;51.580;4.656;2022-07-30T09:16:35;101956.41;;;26.49;41.58
69306;BME280;56427;51.580;4.656;2022-07-30T09:19:14;101966.88;;;26.43;41.42
69306;BME280;56427;51.580;4.656;2022-07-30T09:21:40;101963.03;;;27.11;40.77
69306;BME280;56427;51.580;4.656;2022-07-30T09:24:10;101966.03;;;27.28;38.90
69306;BME280;56427;51.580;4.656;2022-07-30T09:26:59;101967.59;;;27.04;41.25
69306;BME280;56427;51.580;4.656;2022-07-30T09:29:28;101964.00;;;26.18;44.23
69306;BME280;56427;51.580;4.656;2022-07-30T09:32:05;101967.06;;;26.55;42.32
69306;BME280;56427;51.580;4.656;2022-07-30T09:34:38;101966.44;;;26.20;43.88
69306;BME280;56427;51.580;4.656;2022-07-30T09:37:16;101956.16;;;25.77;45.04
69306;BME280;56427;51.580;4.656;2022-07-30T09:39:42;101961.28;;;25.85;45.76
69306;BME280;56427;51.580;4.656;2022-07-30T09:44:43;101962.97;;;26.26;45.94
69306;BME280;56427;51.580;4.656;2022-07-30T09:47:29;101971.16;;;25.36;46.90
69306;BME280;56427;51.580;4.656;2022-07-30T09:52:27;101963.50;;;25.20;46.63
69306;BME280;56427;51.580;4.656;2022-07-30T09:54:55;101965.19;;;24.86;49.10
69306;BME280;56427;51.580;4.656;2022-07-30T09:57:21;101958.56;;;25.51;48.14
69306;BME280;56427;51.580;4.656;2022-07-30T09:59:46;101953.19;;;25.38;49.47
69306;BME280;56427;51.580;4.656;2022-07-30T10:02:11;101955.38;;;25.28;49.83
69306;BME280;56427;51.580;4.656;2022-07-30T10:04:37;101957.66;;;25.38;49.20
69306;BME280;56427;51.580;4.656;2022-07-30T10:07:02;101967.28;;;26.07;48.32
69306;BME280;56427;51.580;4.656;2022-07-30T10:09:30;101956.72;;;26.99;45.08
69306;BME280;56427;51.580;4.656;2022-07-30T10:11:58;101960.28;;;26.66;46.73
69306;BME280;56427;51.580;4.656;2022-07-30T10:14:27;101964.38;;;26.82;46.14
69306;BME280;56427;51.580;4.656;2022-07-30T10:16:53;101957.84;;;25.98;48.61
69306;BME280;56427;51.580;4.656;2022-07-30T10:19:19;101954.75;;;26.61;46.63
69306;BME280;56427;51.580;4.656;2022-07-30T10:21:45;101948.03;;;26.38;46.77
69306;BME280;56427;51.580;4.656;2022-07-30T10:24:15;101956.56;;;25.94;48.28
69306;BME280;56427;51.580;4.656;2022-07-30T10:26:40;101955.97;;;25.23;50.05
69306;BME280;56427;51.580;4.656;2022-07-30T10:29:07;101954.91;;;25.66;49.85
69306;BME280;56427;51.580;4.656;2022-07-30T10:31:32;101959.06;;;26.02;48.98
69306;BME280;56427;51.580;4.656;2022-07-30T10:33:58;101956.81;;;26.66;47.02
69306;BME280;56427;51.580;4.656;2022-07-30T10:36:24;101958.66;;;26.25;47.99
69306;BME280;56427;51.580;4.656;2022-07-30T10:38:51;101958.75;;;25.57;48.57
69306;BME280;56427;51.580;4.656;2022-07-30T10:47:08;101955.41;;;26.23;47.74
69306;BME280;56427;51.580;4.656;2022-07-30T10:49:34;101961.91;;;26.60;46.14
69306;BME280;56427;51.580;4.656;2022-07-30T10:52:00;101958.25;;;26.08;47.84
69306;BME280;56427;51.580;4.656;2022-07-30T10:57:16;101950.25;;;26.61;44.67
69306;BME280;56427;51.580;4.656;2022-07-30T11:02:28;101952.75;;;26.10;46.38
69306;BME280;56427;51.580;4.656;2022-07-30T11:07:42;101951.28;;;26.60;46.28
69306;BME280;56427;51.580;4.656;2022-07-30T11:10:37;101955.13;;;25.78;46.43
69306;BME280;56427;51.580;4.656;2022-07-30T11:13:05;101953.69;;;25.75;49.15
69306;BME280;56427;51.580;4.656;2022-07-30T11:15:56;101953.97;;;26.20;48.23
69306;BME280;56427;51.580;4.656;2022-07-30T11:18:24;101955.28;;;25.49;49.54
69306;BME280;56427;51.580;4.656;2022-07-30T11:21:16;101952.09;;;25.26;49.42
69306;BME280;56427;51.580;4.656;2022-07-30T11:23:42;101945.41;;;24.60;50.68
69306;BME280;56427;51.580;4.656;2022-07-30T11:26:10;101942.88;;;24.80;51.06
69306;BME280;56427;51.580;4.656;2022-07-30T11:28:44;101945.00;;;25.33;50.83
69306;BME280;56427;51.580;4.656;2022-07-30T11:31:26;101948.19;;;25.15;49.01
69306;BME280;56427;51.580;4.656;2022-07-30T11:33:52;101944.09;;;24.49;51.00
69306;BME280;56427;51.580;4.656;2022-07-30T11:36:18;101951.91;;;24.86;50.44
69306;BME280;56427;51.580;4.656;2022-07-30T11:38:54;101942.06;;;24.79;49.94
69306;BME280;56427;51.580;4.656;2022-07-30T11:41:20;101948.50;;;25.40;48.47
69306;BME280;56427;51.580;4.656;2022-07-30T11:43:46;101942.84;;;25.77;48.24
69306;BME280;56427;51.580;4.656;2022-07-30T11:48:39;101945.25;;;24.68;51.07
69306;BME280;56427;51.580;4.656;2022-07-30T11:51:06;101945.28;;;25.65;48.75
69306;BME280;56427;51.580;4.656;2022-07-30T11:53:33;101942.59;;;25.51;48.94
69306;BME280;56427;51.580;4.656;2022-07-30T11:56:00;101936.81;;;25.34;48.92
69306;BME280;56427;51.580;4.656;2022-07-30T11:58:36;101945.16;;;26.06;45.85
69306;BME280;56427;51.580;4.656;2022-07-30T12:01:12;101945.13;;;26.80;44.85
69306;BME280;56427;51.580;4.656;2022-07-30T12:03:42;101946.28;;;27.04;44.79
69306;BME280;56427;51.580;4.656;2022-07-30T12:06:11;101941.22;;;26.76;46.54
69306;BME280;56427;51.580;4.656;2022-07-30T12:08:51;101940.19;;;26.84;44.52
69306;BME280;56427;51.580;4.656;2022-07-30T12:11:17;101940.41;;;26.75;43.96
69306;BME280;56427;51.580;4.656;2022-07-30T12:13:43;101947.03;;;27.18;44.07
69306;BME280;56427;51.580;4.656;2022-07-30T12:16:19;101942.22;;;27.40;42.89
69306;BME280;56427;51.580;4.656;2022-07-30T12:18:45;101943.41;;;27.51;41.63
69306;BME280;56427;51.580;4.656;2022-07-30T12:21:11;101941.84;;;27.36;43.49
69306;BME280;56427;51.580;4.656;2022-07-30T12:23:38;101940.25;;;27.22;41.91
69306;BME280;56427;51.580;4.656;2022-07-30T12:26:04;101941.66;;;26.73;43.67
69306;BME280;56427;51.580;4.656;2022-07-30T12:28:31;101943.88;;;26.76;43.06
69306;BME280;56427;51.580;4.656;2022-07-30T12:30:58;101941.97;;;27.55;41.02
69306;BME280;56427;51.580;4.656;2022-07-30T12:33:25;101934.97;;;28.18;40.90
69306;BME280;56427;51.580;4.656;2022-07-30T12:35:52;101940.31;;;27.54;40.45
69306;BME280;56427;51.580;4.656;2022-07-30T12:38:19;101945.28;;;27.50;42.58
69306;BME280;56427;51.580;4.656;2022-07-30T12:40:59;101939.63;;;27.97;40.55
69306;BME280;56427;51.580;4.656;2022-07-30T12:43:46;101929.41;;;27.87;41.75
69306;BME280;56427;51.580;4.656;2022-07-30T12:46:24;101926.69;;;28.44;40.45
69306;BME280;56427;51.580;4.656;2022-07-30T12:49:01;101931.16;;;29.67;38.97
69306;BME280;56427;51.580;4.656;2022-07-30T12:51:33;101926.75;;;29.30;38.50
69306;BME280;56427;51.580;4.656;2022-07-30T12:54:00;101923.69;;;29.45;38.21
69306;BME280;56427;51.580;4.656;2022-07-30T12:56:27;101918.97;;;28.55;39.86
69306;BME280;56427;51.580;4.656;2022-07-30T12:58:54;101915.94;;;28.07;41.77
69306;BME280;56427;51.580;4.656;2022-07-30T13:01:42;101911.53;;;28.63;40.17
69306;BME280;56427;51.580;4.656;2022-07-30T13:04:09;101905.00;;;28.16;41.37
69306;BME280;56427;51.580;4.656;2022-07-30T13:06:35;101910.25;;;29.03;40.86
69306;BME280;56427;51.580;4.656;2022-07-30T13:09:03;101899.94;;;28.70;40.85